createdAt,value
2022-09-12T00:00:49.289Z,2.80
2022-09-12T00:03:37.549Z,2.40
2022-09-12T00:06:30.248Z,2.40
2022-09-12T00:09:18.100Z,2.93
2022-09-12T00:12:06.470Z,2.78
2022-09-12T00:14:54.595Z,2.20
2022-09-12T00:17:42.552Z,2.40
2022-09-12T00:20:30.564Z,2.47
2022-09-12T00:23:17.882Z,2.60
2022-09-12T00:26:06.562Z,2.67
2022-09-12T00:28:54.470Z,2.03
2022-09-12T00:31:42.222Z,2.20
2022-09-12T00:34:30.096Z,2.47
2022-09-12T00:37:17.369Z,2.67
2022-09-12T00:40:05.257Z,2.50
2022-09-12T00:42:52.741Z,2.30
2022-09-12T00:45:42.840Z,2.30
2022-09-12T00:48:34.557Z,2.50
2022-09-12T00:51:22.904Z,2.30
2022-09-12T00:54:13.475Z,2.27
2022-09-12T00:57:02.948Z,2.80
2022-09-12T00:59:53.524Z,2.30
2022-09-12T01:02:41.831Z,2.50
2022-09-12T01:05:30.271Z,2.40
2022-09-12T01:08:18.647Z,2.27
2022-09-12T01:11:06.462Z,2.23
2022-09-12T01:13:54.475Z,3.10
2022-09-12T01:16:42.249Z,2.30
2022-09-12T01:19:39.140Z,2.10
2022-09-12T01:22:38.708Z,3.40
2022-09-12T01:25:34.265Z,2.73
2022-09-12T01:32:11.684Z,3.03
2022-09-12T01:35:05.748Z,2.30
2022-09-12T01:38:05.769Z,2.07
2022-09-12T01:40:53.584Z,2.40
2022-09-12T01:43:41.501Z,2.00
2022-09-12T01:46:48.604Z,1.93
2022-09-12T01:49:39.018Z,2.03
2022-09-12T01:52:26.727Z,1.80
2022-09-12T01:55:16.164Z,2.27
2022-09-12T01:58:03.753Z,2.07
2022-09-12T02:00:59.947Z,2.10
2022-09-12T02:03:58.816Z,2.27
2022-09-12T02:06:59.077Z,1.70
2022-09-12T02:09:49.172Z,1.90
2022-09-12T02:12:43.856Z,1.77
2022-09-12T02:15:34.971Z,2.20
2022-09-12T02:18:22.975Z,1.87
2022-09-12T02:21:10.700Z,2.20
2022-09-12T02:23:59.605Z,2.13
2022-09-12T02:26:59.041Z,2.10
2022-09-12T02:29:47.012Z,1.83
2022-09-12T02:32:39.110Z,1.73
2022-09-12T02:35:33.329Z,2.07
2022-09-12T02:38:36.597Z,1.97
2022-09-12T02:41:24.492Z,2.10
2022-09-12T02:44:12.382Z,1.93
2022-09-12T02:47:03.405Z,2.17
2022-09-12T02:49:51.148Z,1.77
2022-09-12T02:52:38.790Z,2.00
2022-09-12T02:55:27.809Z,1.90
2022-09-12T02:58:20.726Z,1.83
2022-09-12T03:01:17.378Z,2.33
2022-09-12T03:04:23.976Z,2.00
2022-09-12T03:07:20.265Z,2.03
2022-09-12T03:10:10.568Z,1.80
2022-09-12T03:13:22.137Z,1.70
2022-09-12T03:16:19.068Z,2.00
2022-09-12T03:19:26.948Z,1.90
2022-09-12T03:22:19.870Z,2.40
2022-09-12T03:25:13.134Z,2.30
2022-09-12T03:28:06.082Z,2.10
2022-09-12T03:30:54.714Z,2.40
2022-09-12T03:33:42.597Z,2.17
2022-09-12T03:36:31.085Z,1.80
2022-09-12T03:39:19.149Z,2.30
2022-09-12T03:42:07.268Z,1.90
2022-09-12T03:44:55.061Z,2.17
2022-09-12T03:47:42.220Z,2.07
2022-09-12T03:50:29.841Z,1.80
2022-09-12T03:53:17.485Z,2.27
2022-09-12T03:56:08.771Z,2.00
2022-09-12T03:58:55.947Z,2.37
2022-09-12T04:01:43.656Z,1.90
2022-09-12T04:04:31.712Z,2.70
2022-09-12T04:07:18.941Z,2.37
2022-09-12T04:10:06.812Z,1.80
2022-09-12T04:12:54.056Z,2.13
2022-09-12T04:15:41.629Z,2.30
2022-09-12T04:18:29.077Z,1.97
2022-09-12T04:21:18.642Z,2.10
2022-09-12T04:24:06.620Z,2.20
2022-09-12T04:26:54.413Z,2.20
2022-09-12T04:29:42.128Z,2.20
2022-09-12T04:32:31.517Z,2.30
2022-09-12T04:35:19.347Z,2.20
2022-09-12T04:38:07.139Z,1.97
2022-09-12T04:40:54.463Z,2.30
2022-09-12T04:43:42.806Z,2.60
2022-09-12T04:46:31.756Z,2.30
2022-09-12T04:49:19.793Z,2.00
2022-09-12T04:52:08.055Z,2.50
2022-09-12T04:54:56.027Z,2.30
2022-09-12T04:57:43.786Z,2.40
2022-09-12T05:00:31.538Z,2.37
2022-09-12T05:03:19.304Z,2.37
2022-09-12T05:06:11.053Z,2.70
2022-09-12T05:08:59.119Z,2.33
2022-09-12T05:12:03.763Z,2.07
2022-09-12T05:14:52.244Z,2.30
2022-09-12T05:17:39.558Z,2.10
2022-09-12T05:20:26.776Z,2.30
2022-09-12T05:23:14.116Z,2.00
2022-09-12T05:26:01.635Z,2.00
2022-09-12T05:28:49.993Z,1.83
2022-09-12T05:31:38.138Z,2.13
2022-09-12T05:34:25.531Z,1.93
2022-09-12T05:37:13.375Z,2.10
2022-09-12T05:40:01.757Z,2.40
2022-09-12T05:42:49.351Z,2.37
2022-09-12T05:45:37.428Z,2.43
2022-09-12T05:48:25.197Z,1.87
2022-09-12T05:51:14.254Z,2.20
2022-09-12T05:54:03.633Z,2.33
2022-09-12T05:56:51.348Z,2.40
2022-09-12T05:59:38.820Z,2.20
2022-09-12T06:02:27.051Z,1.98
2022-09-12T06:05:14.984Z,2.03
2022-09-12T06:08:02.495Z,2.33
2022-09-12T06:10:49.860Z,1.88
2022-09-12T06:13:37.821Z,1.70
2022-09-12T06:16:47.457Z,1.75
2022-09-12T06:19:35.447Z,1.70
2022-09-12T06:22:24.038Z,1.48
2022-09-12T06:25:11.789Z,1.50
2022-09-12T06:27:59.661Z,1.40
2022-09-12T06:30:49.501Z,1.50
2022-09-12T06:33:42.808Z,1.40
2022-09-12T06:36:43.562Z,1.70
2022-09-12T06:39:32.034Z,1.00
2022-09-12T06:42:20.449Z,1.30
2022-09-12T06:45:08.160Z,1.20
2022-09-12T06:47:56.587Z,1.50
2022-09-12T06:50:44.137Z,1.38
2022-09-12T06:53:39.318Z,1.35
2022-09-12T06:56:27.670Z,1.40
2022-09-12T06:59:15.525Z,1.08
2022-09-12T07:02:02.714Z,1.05
2022-09-12T07:04:52.151Z,1.10
2022-09-12T07:07:39.798Z,1.30
2022-09-12T07:10:28.219Z,1.35
2022-09-12T07:13:16.005Z,1.08
2022-09-12T07:16:04.710Z,1.33
2022-09-12T07:18:52.732Z,1.02
2022-09-12T07:21:40.798Z,1.20
2022-09-12T07:24:28.629Z,1.20
2022-09-12T07:27:16.082Z,1.30
2022-09-12T07:30:03.856Z,1.20
2022-09-12T07:32:55.222Z,1.23
2022-09-12T07:35:43.027Z,1.20
2022-09-12T07:38:30.349Z,1.52
2022-09-12T07:41:19.666Z,1.30
2022-09-12T07:44:07.203Z,1.77
2022-09-12T07:46:54.994Z,1.15
2022-09-12T07:49:42.637Z,1.70
2022-09-12T07:52:29.951Z,1.70
2022-09-12T07:55:17.459Z,2.00
2022-09-12T07:58:05.314Z,1.88
2022-09-12T08:00:53.118Z,1.83
2022-09-12T08:03:44.209Z,2.00
2022-09-12T08:06:32.466Z,2.17
2022-09-12T08:09:20.301Z,2.13
2022-09-12T08:12:07.807Z,2.10
2022-09-12T08:14:55.535Z,2.08
2022-09-12T08:17:43.006Z,2.00
2022-09-12T08:20:31.349Z,1.88
2022-09-12T08:23:21.193Z,2.10
2022-09-12T08:26:09.232Z,1.77
2022-09-12T08:28:56.952Z,2.25
2022-09-12T08:31:44.148Z,1.63
2022-09-12T08:34:31.446Z,1.50
2022-09-12T08:37:19.051Z,1.80
2022-09-12T08:40:07.070Z,1.60
2022-09-12T08:43:15.276Z,1.60
2022-09-12T08:46:06.049Z,1.70
2022-09-12T08:48:53.652Z,1.88
2022-09-12T08:51:41.676Z,1.73
2022-09-12T08:54:29.990Z,1.77
2022-09-12T08:57:19.078Z,1.55
2022-09-12T09:00:07.851Z,1.80
2022-09-12T09:03:14.001Z,1.80
2022-09-12T09:06:14.343Z,1.50
2022-09-12T09:09:06.514Z,1.40
2022-09-12T09:12:07.486Z,1.80
2022-09-12T09:15:13.577Z,1.60
2022-09-12T09:18:00.982Z,1.42
2022-09-12T09:20:51.676Z,1.60
2022-09-12T09:23:47.089Z,1.58
2022-09-12T09:26:46.827Z,1.60
2022-09-12T09:29:41.181Z,1.85
2022-09-12T09:32:37.496Z,1.73
2022-09-12T09:35:25.140Z,1.52
2022-09-12T09:38:18.167Z,1.67
2022-09-12T09:41:05.549Z,1.20
2022-09-12T09:43:53.558Z,1.42
2022-09-12T09:46:41.225Z,1.75
2022-09-12T09:49:31.716Z,1.45
2022-09-12T09:52:25.510Z,1.40
2022-09-12T09:55:24.376Z,1.40
2022-09-12T09:58:11.831Z,1.33
2022-09-12T10:01:00.699Z,1.80
2022-09-12T10:03:51.207Z,1.50
2022-09-12T10:06:39.359Z,1.38
2022-09-12T10:09:33.010Z,1.65
2022-09-12T10:12:22.026Z,1.67
2022-09-12T10:15:18.438Z,1.73
2022-09-12T10:18:06.355Z,1.85
2022-09-12T10:20:53.828Z,1.60
2022-09-12T10:23:42.148Z,1.50
2022-09-12T10:26:33.948Z,1.80
2022-09-12T10:29:27.604Z,1.40
2022-09-12T10:32:22.159Z,1.60
2022-09-12T10:35:18.442Z,1.63
2022-09-12T10:38:07.322Z,1.50
2022-09-12T10:41:05.342Z,1.40
2022-09-12T10:43:52.788Z,1.55
2022-09-12T10:46:40.591Z,1.60
2022-09-12T10:49:28.170Z,1.23
2022-09-12T10:52:22.510Z,1.35
2022-09-12T10:55:14.679Z,1.35
2022-09-12T10:58:14.923Z,1.52
2022-09-12T11:01:11.567Z,1.70
2022-09-12T11:04:18.331Z,1.70
2022-09-12T11:07:25.130Z,1.50
2022-09-12T11:10:19.289Z,1.58
2022-09-12T11:13:27.181Z,1.60
2022-09-12T11:16:22.975Z,1.67
2022-09-12T11:19:29.091Z,1.50
2022-09-12T11:22:55.500Z,1.50
2022-09-12T11:25:59.409Z,1.50
2022-09-12T11:28:53.377Z,1.63
2022-09-12T11:31:51.067Z,1.80
2022-09-12T11:34:42.691Z,1.83
2022-09-12T11:37:30.578Z,2.05
2022-09-12T11:40:56.701Z,1.58
2022-09-12T11:43:49.422Z,1.95
2022-09-12T11:46:38.644Z,1.55
2022-09-12T11:49:34.808Z,1.63
2022-09-12T11:52:26.670Z,1.80
2022-09-12T11:55:18.236Z,1.70
2022-09-12T11:58:05.566Z,1.73
2022-09-12T12:00:56.157Z,1.77
2022-09-12T12:03:45.074Z,1.45
2022-09-12T12:06:34.683Z,1.60
2022-09-12T12:09:22.251Z,1.92
2022-09-12T12:12:12.583Z,2.00
2022-09-12T12:15:00.930Z,1.80
2022-09-12T12:18:01.052Z,1.67
2022-09-12T12:20:49.176Z,1.90
2022-09-12T12:23:36.912Z,1.70
2022-09-12T12:26:57.833Z,1.85
2022-09-12T12:29:45.619Z,1.98
2022-09-12T12:32:33.067Z,1.70
2022-09-12T12:35:46.977Z,2.00
2022-09-12T12:38:38.445Z,1.77
2022-09-12T12:41:43.949Z,1.50
2022-09-12T12:44:48.982Z,1.85
2022-09-12T12:47:36.426Z,1.90
2022-09-12T12:50:26.826Z,1.60
2022-09-12T12:53:25.168Z,1.55
2022-09-12T12:56:31.578Z,1.50
2022-09-12T12:59:21.861Z,1.58
2022-09-12T13:02:18.514Z,1.63
2022-09-12T13:05:08.346Z,2.00
2022-09-12T13:08:00.658Z,1.65
2022-09-12T13:10:52.546Z,1.63
2022-09-12T13:13:46.462Z,1.52
2022-09-12T13:16:38.542Z,1.50
2022-09-12T13:19:32.759Z,1.90
2022-09-12T13:22:22.905Z,1.90
2022-09-12T13:25:19.882Z,1.60
2022-09-12T13:28:13.763Z,1.63
2022-09-12T13:31:03.727Z,1.75
2022-09-12T13:34:02.800Z,1.40
2022-09-12T13:37:08.178Z,1.80
2022-09-12T13:40:15.458Z,1.75
2022-09-12T13:43:16.838Z,1.50
2022-09-12T13:46:04.408Z,1.58
2022-09-12T13:48:52.363Z,1.50
2022-09-12T13:51:39.832Z,1.50
2022-09-12T13:54:27.909Z,1.63
2022-09-12T13:57:48.329Z,1.83
2022-09-12T14:00:37.620Z,1.45
2022-09-12T14:03:46.953Z,1.60
2022-09-12T14:06:53.373Z,1.50
2022-09-12T14:09:45.162Z,1.60
2022-09-12T14:12:35.454Z,1.40
2022-09-12T14:15:25.598Z,1.55
2022-09-12T14:18:23.337Z,1.42
2022-09-12T14:21:12.730Z,1.60
2022-09-12T14:24:01.779Z,1.42
2022-09-12T14:26:50.827Z,1.55
2022-09-12T14:29:38.328Z,1.63
2022-09-12T14:32:25.969Z,1.60
2022-09-12T14:35:13.798Z,1.70
2022-09-12T14:38:07.543Z,1.38
2022-09-12T14:41:02.951Z,1.35
2022-09-12T14:43:53.253Z,1.70
2022-09-12T14:46:42.244Z,1.50
2022-09-12T14:49:37.244Z,1.80
2022-09-12T14:52:24.652Z,2.53
2022-09-12T14:55:29.974Z,1.40
2022-09-12T14:58:20.455Z,1.70
2022-09-12T15:01:08.789Z,1.60
2022-09-12T15:03:57.596Z,1.65
2022-09-12T15:06:45.111Z,1.70
2022-09-12T15:09:34.368Z,1.75
2022-09-12T15:12:21.918Z,1.40
2022-09-12T15:15:20.414Z,1.40
2022-09-12T15:18:08.527Z,1.52
2022-09-12T15:20:57.072Z,1.60
2022-09-12T15:23:46.338Z,1.35
2022-09-12T15:26:33.783Z,1.60
2022-09-12T15:29:21.201Z,1.65
2022-09-12T15:32:14.980Z,1.80
2022-09-12T15:35:02.629Z,1.40
2022-09-12T15:37:50.790Z,1.67
2022-09-12T15:40:38.425Z,1.60
2022-09-12T15:43:26.265Z,1.40
2022-09-12T15:46:14.735Z,1.65
2022-09-12T15:49:02.153Z,1.80
2022-09-12T15:51:49.992Z,1.85
2022-09-12T15:54:37.676Z,1.75
2022-09-12T15:57:25.398Z,1.42
2022-09-12T16:00:14.081Z,1.85
2022-09-12T16:03:01.964Z,1.38
2022-09-12T16:05:49.972Z,1.50
2022-09-12T16:08:37.458Z,1.75
2022-09-12T16:11:26.535Z,1.58
2022-09-12T16:14:17.911Z,1.50
2022-09-12T16:17:06.805Z,1.50
2022-09-12T16:19:54.224Z,1.50
2022-09-12T16:22:42.399Z,1.70
2022-09-12T16:25:30.215Z,1.40
2022-09-12T16:28:17.625Z,1.60
2022-09-12T16:31:06.213Z,1.50
2022-09-12T16:33:54.454Z,1.80
2022-09-12T16:36:42.346Z,1.88
2022-09-12T16:39:30.172Z,1.63
2022-09-12T16:42:21.204Z,1.90
2022-09-12T16:45:09.785Z,1.40
2022-09-12T16:47:57.476Z,1.88
2022-09-12T16:50:45.166Z,1.95
2022-09-12T16:53:33.492Z,1.52
2022-09-12T16:56:20.916Z,2.13
2022-09-12T16:59:12.478Z,1.67
2022-09-12T17:02:00.619Z,1.92
2022-09-12T17:04:48.792Z,2.40
2022-09-12T17:07:36.024Z,2.10
2022-09-12T17:10:23.694Z,2.45
2022-09-12T17:13:10.868Z,2.38
2022-09-12T17:15:58.908Z,2.45
2022-09-12T17:18:47.232Z,2.17
2022-09-12T17:21:35.091Z,2.00
2022-09-12T17:24:23.106Z,2.20
2022-09-12T17:27:10.956Z,2.17
2022-09-12T17:29:58.459Z,2.83
2022-09-12T17:32:46.362Z,2.80
2022-09-12T17:35:38.558Z,2.45
2022-09-12T17:38:26.062Z,2.22
2022-09-12T17:41:16.001Z,2.55
2022-09-12T17:44:03.659Z,2.30
2022-09-12T17:46:51.494Z,2.55
2022-09-12T17:49:40.505Z,2.88
2022-09-12T17:52:28.729Z,2.38
2022-09-12T17:55:16.228Z,2.70
2022-09-12T17:58:04.190Z,2.80
2022-09-12T18:01:10.189Z,3.30
2022-09-12T18:04:00.404Z,2.50
2022-09-12T18:06:48.927Z,2.58
2022-09-12T18:09:36.389Z,2.95
2022-09-12T18:12:24.531Z,2.70
2022-09-12T18:15:12.054Z,3.15
2022-09-12T18:17:59.431Z,2.60
2022-09-12T18:20:53.120Z,3.10
2022-09-12T18:23:40.370Z,3.88
2022-09-12T18:26:28.821Z,4.10
2022-09-12T18:29:16.914Z,4.47
2022-09-12T18:32:04.320Z,3.03
2022-09-12T18:34:52.599Z,3.50
2022-09-12T18:37:44.338Z,3.95
2022-09-12T18:40:32.193Z,3.35
2022-09-12T18:43:19.565Z,3.72
2022-09-12T18:46:08.636Z,3.92
2022-09-12T18:48:59.796Z,3.80
2022-09-12T18:51:47.766Z,4.28
2022-09-12T18:54:36.191Z,3.90
2022-09-12T18:57:25.576Z,3.15
2022-09-12T19:00:13.714Z,3.35
2022-09-12T19:03:00.925Z,3.05
2022-09-12T19:05:48.835Z,3.55
2022-09-12T19:08:36.957Z,3.30
2022-09-12T19:11:24.968Z,3.42
2022-09-12T19:14:12.413Z,3.90
2022-09-12T19:16:59.667Z,3.40
2022-09-12T19:19:47.596Z,3.33
2022-09-12T19:22:34.806Z,3.78
2022-09-12T19:25:22.721Z,3.35
2022-09-12T19:28:10.123Z,3.50
2022-09-12T19:30:58.094Z,3.67
2022-09-12T19:33:46.062Z,3.88
2022-09-12T19:36:45.250Z,3.90
2022-09-12T19:39:33.118Z,3.75
2022-09-12T19:42:20.596Z,3.80
2022-09-12T19:45:08.201Z,3.92
2022-09-12T19:47:55.709Z,3.80
2022-09-12T19:50:43.614Z,4.22
2022-09-12T19:53:31.874Z,3.78
2022-09-12T19:56:19.359Z,4.32
2022-09-12T19:59:07.268Z,3.67
2022-09-12T20:01:55.021Z,4.10
2022-09-12T20:04:43.034Z,4.32
2022-09-12T20:07:30.939Z,4.43
2022-09-12T20:10:18.479Z,4.18
2022-09-12T20:13:06.812Z,4.15
2022-09-12T20:15:54.310Z,4.38
2022-09-12T20:18:42.628Z,5.05
2022-09-12T20:21:31.967Z,4.82
2022-09-12T20:24:19.724Z,4.85
2022-09-12T20:27:06.914Z,5.38
2022-09-12T20:29:54.941Z,4.43
2022-09-12T20:32:42.908Z,4.75
2022-09-12T20:35:30.330Z,5.20
2022-09-12T20:38:18.228Z,4.68
2022-09-12T20:41:06.468Z,4.43
2022-09-12T20:43:55.210Z,5.40
2022-09-12T20:46:43.183Z,4.35
2022-09-12T20:49:30.634Z,4.10
2022-09-12T20:52:18.646Z,4.40
2022-09-12T20:55:06.463Z,4.25
2022-09-12T20:57:54.282Z,4.55
2022-09-12T21:00:42.449Z,4.20
2022-09-12T21:03:29.853Z,4.38
2022-09-12T21:06:17.934Z,3.97
2022-09-12T21:09:06.035Z,4.18
2022-09-12T21:11:53.195Z,4.28
2022-09-12T21:14:41.048Z,4.20
2022-09-12T21:17:28.657Z,3.92
2022-09-12T21:20:16.529Z,4.40
2022-09-12T21:23:04.429Z,4.18
2022-09-12T21:25:52.572Z,4.35
2022-09-12T21:28:40.667Z,4.78
2022-09-12T21:31:28.361Z,3.85
2022-09-12T21:34:16.285Z,4.70
2022-09-12T21:37:04.112Z,4.22
2022-09-12T21:39:51.336Z,4.53
2022-09-12T21:42:39.175Z,4.03
2022-09-12T21:45:26.573Z,3.72
2022-09-12T21:48:14.261Z,4.00
2022-09-12T21:51:01.726Z,3.67
2022-09-12T21:53:49.430Z,3.90
2022-09-12T21:56:36.794Z,3.95
2022-09-12T21:59:24.585Z,3.50
2022-09-12T22:02:12.382Z,4.53
2022-09-12T22:05:00.105Z,4.18
2022-09-12T22:07:47.510Z,4.57
2022-09-12T22:10:35.610Z,3.95
2022-09-12T22:13:22.828Z,3.88
2022-09-12T22:16:12.116Z,3.90
2022-09-12T22:18:59.922Z,4.00
2022-09-12T22:22:06.055Z,4.07
2022-09-12T22:24:53.900Z,3.97
2022-09-12T22:27:41.527Z,4.50
2022-09-12T22:30:28.717Z,4.25
2022-09-12T22:33:16.402Z,4.00
2022-09-12T22:36:04.513Z,3.97
2022-09-12T22:38:51.692Z,4.05
2022-09-12T22:41:39.320Z,3.90
2022-09-12T22:44:27.114Z,4.40
2022-09-12T22:47:14.495Z,4.22
2022-09-12T22:50:02.320Z,3.70
2022-09-12T22:52:50.105Z,3.72
2022-09-12T22:55:37.645Z,3.92
2022-09-12T22:58:25.461Z,3.60
2022-09-12T23:01:12.744Z,4.03
2022-09-12T23:04:00.761Z,3.90
2022-09-12T23:06:48.331Z,3.28
2022-09-12T23:09:35.926Z,3.72
2022-09-12T23:12:23.193Z,3.50
2022-09-12T23:15:11.686Z,3.28
2022-09-12T23:18:00.021Z,3.33
2022-09-12T23:20:56.845Z,3.47
2022-09-12T23:23:44.679Z,3.42
2022-09-12T23:26:32.415Z,3.58
2022-09-12T23:29:20.299Z,3.23
2022-09-12T23:32:07.740Z,2.67
2022-09-12T23:34:55.324Z,3.20
2022-09-12T23:37:42.962Z,2.80
2022-09-12T23:40:30.339Z,3.23
2022-09-12T23:43:17.941Z,2.80
2022-09-12T23:46:05.512Z,3.05
2022-09-12T23:48:56.070Z,3.40
2022-09-12T23:51:44.894Z,3.47
2022-09-12T23:54:32.699Z,2.90
2022-09-12T23:57:20.638Z,2.73
